Time;durP1;ratioP1;P1;durP2;ratioP2;P2;SDS_P1;SDS_P2;PMS_P1;PMS_P2;Temp;Humidity;BMP_temperature;BMP_pressure;BME280_temperature;BME280_humidity;BME280_pressure;Samples;Min_cycle;Max_cycle;Signal;HPM_P1;HPM_P2
2022/06/03 00:00:06;;;;;;;0.20;0.10;;;26.50;32.90;;;;;;4985306;28;20050;-57
2022/06/03 00:03:00;;;;;;;0.40;0.10;;;26.40;32.80;;;;;;4988029;28;20058;-57
2022/06/03 00:06:00;;;;;;;0.70;0.20;;;26.50;32.90;;;;;;4986846;28;20128;-54
2022/06/03 00:08:54;;;;;;;0.17;0.17;;;26.50;33.00;;;;;;4987398;28;20117;-55
2022/06/03 00:11:32;;;;;;;0.10;0.10;;;26.40;32.90;;;;;;4985595;28;20054;-54
2022/06/03 00:14:33;;;;;;;0.10;0.10;;;26.40;33.00;;;;;;4986338;28;20141;-55
2022/06/03 00:17:11;;;;;;;0.30;0.28;;;26.40;32.90;;;;;;4984531;28;20171;-55
2022/06/03 00:19:55;;;;;;;0.65;0.10;;;26.40;33.00;;;;;;4986070;28;20093;-57
2022/06/03 00:22:52;;;;;;;1.55;0.10;;;26.40;33.00;;;;;;4986342;28;20039;-57
2022/06/03 00:25:46;;;;;;;0.20;0.10;;;26.40;33.10;;;;;;4983983;28;20082;-58
2022/06/03 00:28:38;;;;;;;0.68;0.10;;;26.40;33.00;;;;;;4985828;28;20086;-55
2022/06/03 00:31:22;;;;;;;0.43;0.10;;;26.30;33.00;;;;;;4982435;28;20458;-56
2022/06/03 00:34:09;;;;;;;0.52;0.10;;;26.30;33.10;;;;;;4986221;28;20466;-58
2022/06/03 00:36:50;;;;;;;2.58;0.10;;;26.30;33.10;;;;;;4980805;28;20143;-56
2022/06/03 00:39:40;;;;;;;0.30;0.13;;;26.30;33.10;;;;;;4983478;28;20046;-57
2022/06/03 00:42:28;;;;;;;0.30;0.10;;;26.30;33.20;;;;;;4986409;28;20038;-56
2022/06/03 00:45:19;;;;;;;1.25;0.47;;;26.30;33.20;;;;;;4986868;28;20050;-56
2022/06/03 00:48:03;;;;;;;0.20;0.10;;;26.30;33.80;;;;;;4984886;28;20121;-57
2022/06/03 00:50:52;;;;;;;1.20;0.10;;;26.30;33.20;;;;;;4986236;28;20491;-57
2022/06/03 00:53:38;;;;;;;0.20;0.10;;;26.30;33.20;;;;;;4987097;28;20121;-55
2022/06/03 00:56:23;;;;;;;;;;;26.30;33.90;;;;;;4985889;28;20523;-56
2022/06/03 00:59:03;;;;;;;0.88;0.15;;;26.20;33.20;;;;;;4984170;28;19929;-55
2022/06/03 01:01:41;;;;;;;1.08;0.20;;;26.20;33.40;;;;;;4984735;28;20082;-55
2022/06/03 01:04:36;;;;;;;0.15;0.10;;;26.20;33.40;;;;;;4986113;28;20046;-59
2022/06/03 01:07:15;;;;;;;0.10;0.10;;;26.20;33.40;;;;;;4987500;28;20120;-59
2022/06/03 01:09:59;;;;;;;1.63;0.00;;;26.20;33.50;;;;;;4986141;28;20042;-57
2022/06/03 01:13:05;;;;;;;2.53;0.10;;;26.20;33.60;;;;;;4987758;28;20126;-49
2022/06/03 01:15:42;;;;;;;3.30;0.60;;;26.20;33.70;;;;;;4925804;29;20063;-56
2022/06/03 01:18:25;;;;;;;0.10;0.10;;;26.20;34.10;;;;;;4928039;29;20146;-58
2022/06/03 01:21:17;;;;;;;5.05;0.22;;;26.20;34.40;;;;;;4925794;29;20051;-59
2022/06/03 01:24:02;;;;;;;1.55;0.10;;;26.20;34.50;;;;;;4924478;29;20083;-58
2022/06/03 01:26:48;;;;;;;2.60;0.77;;;26.20;34.60;;;;;;4928522;29;20079;-58
2022/06/03 01:29:41;;;;;;;0.52;0.40;;;26.20;34.70;;;;;;4928815;28;20059;-58
2022/06/03 01:32:46;;;;;;;3.03;0.10;;;26.20;34.80;;;;;;4929442;29;20401;-58
2022/06/03 01:35:43;;;;;;;1.00;0.10;;;26.20;34.80;;;;;;4915291;29;20650;-56
2022/06/03 01:38:18;;;;;;;;;;;26.20;34.90;;;;;;4854864;29;20150;-57
2022/06/03 01:41:02;;;;;;;1.02;0.15;;;26.20;34.90;;;;;;4872005;29;20027;-58
2022/06/03 01:43:50;;;;;;;0.13;0.13;;;26.20;35.10;;;;;;4871636;29;20053;-58
2022/06/03 01:46:38;;;;;;;1.50;1.40;;;26.20;35.10;;;;;;4872072;29;20047;-57
2022/06/03 01:49:45;;;;;;;0.45;0.10;;;26.20;35.10;;;;;;4881112;29;20075;-58
2022/06/03 01:52:48;;;;;;;0.10;0.10;;;26.20;35.10;;;;;;4922797;29;20051;-58
2022/06/03 01:55:56;;;;;;;2.05;0.20;;;26.20;35.10;;;;;;4928263;29;20055;-58
2022/06/03 01:58:43;;;;;;;2.97;0.45;;;26.20;35.10;;;;;;4925790;29;20055;-58
2022/06/03 02:01:49;;;;;;;0.63;0.10;;;26.20;35.20;;;;;;4921921;29;20047;-58
2022/06/03 02:04:35;;;;;;;0.75;0.10;;;26.20;35.20;;;;;;4889892;29;20140;-58
2022/06/03 02:07:30;;;;;;;0.70;0.10;;;26.10;35.20;;;;;;4884734;29;20056;-58
2022/06/03 02:10:29;;;;;;;0.40;0.20;;;26.20;35.30;;;;;;4889846;29;20052;-58
2022/06/03 02:13:39;;;;;;;0.85;0.10;;;26.20;35.30;;;;;;4884806;29;20193;-57
2022/06/03 02:16:31;;;;;;;0.10;0.10;;;26.20;35.30;;;;;;4916536;29;20039;-58
2022/06/03 02:19:42;;;;;;;0.28;0.10;;;26.20;36.00;;;;;;4927511;29;20138;-58
2022/06/03 02:22:28;;;;;;;0.43;0.05;;;26.10;35.30;;;;;;4921134;29;20158;-58
2022/06/03 02:25:27;;;;;;;0.95;0.10;;;26.10;35.40;;;;;;4927635;29;20079;-57
2022/06/03 02:28:27;;;;;;;0.08;0.08;;;26.10;35.50;;;;;;4927163;29;20560;-56
2022/06/03 02:31:21;;;;;;;0.35;0.10;;;26.10;35.50;;;;;;4927524;29;20074;-57
2022/06/03 02:34:14;;;;;;;0.65;0.10;;;26.10;35.60;;;;;;4927307;29;20130;-57
2022/06/03 02:37:13;;;;;;;1.95;0.05;;;26.10;35.60;;;;;;4927382;29;20469;-57
2022/06/03 02:40:06;;;;;;;1.00;0.10;;;26.10;35.60;;;;;;4926638;29;20530;-57
2022/06/03 02:43:06;;;;;;;0.20;0.10;;;26.10;35.70;;;;;;4983311;28;20463;-56
2022/06/03 02:46:13;;;;;;;3.05;0.10;;;26.10;35.70;;;;;;4988449;28;20487;-55
2022/06/03 02:49:23;;;;;;;2.28;0.03;;;26.10;35.80;;;;;;4986126;28;20415;-58
2022/06/03 02:52:14;;;;;;;0.20;0.08;;;26.10;35.70;;;;;;4926399;29;20048;-56
2022/06/03 02:55:14;;;;;;;0.47;0.05;;;26.00;35.70;;;;;;4922165;29;20051;-57
2022/06/03 02:58:27;;;;;;;0.30;0.10;;;26.10;35.90;;;;;;4926586;29;20071;-55
2022/06/03 03:01:11;;;;;;;0.68;0.00;;;26.10;35.90;;;;;;4920717;29;20127;-56
2022/06/03 03:03:58;;;;;;;1.45;0.10;;;26.10;35.90;;;;;;4920958;29;20130;-55
2022/06/03 03:06:42;;;;;;;;;;;26.00;35.90;;;;;;4924756;29;20177;-56
2022/06/03 03:09:20;;;;;;;0.10;0.10;;;26.00;35.80;;;;;;4926645;29;19926;-57
2022/06/03 03:12:20;;;;;;;0.10;0.00;;;26.00;36.00;;;;;;4927607;29;20118;-56
2022/06/03 03:15:20;;;;;;;0.10;0.10;;;26.00;36.00;;;;;;4927643;29;20127;-57
2022/06/03 03:18:20;;;;;;;3.72;0.52;;;26.00;35.90;;;;;;4924846;29;20095;-57
2022/06/03 03:21:14;;;;;;;0.13;0.10;;;26.00;36.00;;;;;;4921932;29;20052;-56
2022/06/03 03:24:13;;;;;;;0.10;0.03;;;26.00;36.00;;;;;;4980238;28;20046;-55
2022/06/03 03:26:54;;;;;;;1.08;0.10;;;26.00;36.00;;;;;;4984822;28;20073;-56
2022/06/03 03:29:44;;;;;;;1.13;0.00;;;26.00;36.10;;;;;;4988532;28;20045;-57
2022/06/03 03:32:25;;;;;;;2.13;0.10;;;26.00;36.10;;;;;;4987884;28;20519;-56
2022/06/03 03:35:25;;;;;;;0.17;0.00;;;26.00;36.20;;;;;;4986987;28;20113;-56
2022/06/03 03:38:23;;;;;;;0.20;0.10;;;26.00;36.20;;;;;;4987190;28;20062;-57
2022/06/03 03:41:18;;;;;;;0.20;0.10;;;26.00;36.30;;;;;;4987082;28;20038;-57
2022/06/03 03:44:32;;;;;;;0.03;0.00;;;26.00;36.40;;;;;;4986956;28;20078;-56
2022/06/03 03:47:42;;;;;;;1.33;0.00;;;26.00;36.40;;;;;;4986764;28;20096;-58
2022/06/03 03:50:36;;;;;;;0.10;0.10;;;26.00;36.50;;;;;;4987295;28;20133;-57
2022/06/03 03:53:30;;;;;;;0.03;0.00;;;26.00;36.50;;;;;;4986189;28;20046;-57
2022/06/03 03:56:34;;;;;;;0.22;0.10;;;26.00;36.50;;;;;;4931776;29;20051;-58
2022/06/03 03:59:54;;;;;;;0.65;0.20;;;26.00;36.60;;;;;;4936165;29;20146;-58
2022/06/03 04:02:55;;;;;;;0.40;0.10;;;26.00;36.70;;;;;;4875643;29;20700;-59
2022/06/03 04:06:01;;;;;;;0.20;0.10;;;25.90;36.70;;;;;;4873785;29;20138;-57
2022/06/03 04:09:07;;;;;;;0.08;0.08;;;26.00;36.80;;;;;;4883188;29;20565;-58
2022/06/03 04:12:08;;;;;;;0.10;0.10;;;25.90;36.70;;;;;;4875277;29;20109;-57
2022/06/03 04:15:06;;;;;;;0.68;0.10;;;25.90;36.70;;;;;;4875586;29;20129;-58
2022/06/03 04:18:08;;;;;;;0.28;0.05;;;26.00;36.80;;;;;;4875641;29;20049;-59
2022/06/03 04:20:56;;;;;;;0.75;0.08;;;26.00;36.70;;;;;;4871420;29;20633;-59
2022/06/03 04:23:48;;;;;;;1.17;0.10;;;25.90;36.70;;;;;;4809840;29;20053;-57
2022/06/03 04:26:44;;;;;;;2.20;0.30;;;25.90;36.70;;;;;;4800987;29;20071;-55
2022/06/03 04:29:48;;;;;;;2.97;0.10;;;25.90;36.60;;;;;;4747228;30;20492;-54
2022/06/03 04:32:39;;;;;;;0.10;0.10;;;25.90;36.70;;;;;;4760493;29;20189;-57
2022/06/03 04:35:41;;;;;;;0.00;0.00;;;25.90;36.70;;;;;;4799229;29;20117;-57
2022/06/03 04:38:44;;;;;;;0.10;0.00;;;26.00;36.70;;;;;;4854944;29;20077;-58
2022/06/03 04:42:06;;;;;;;0.03;0.03;;;25.90;36.70;;;;;;4855341;29;20109;-58
2022/06/03 04:45:03;;;;;;;0.10;0.10;;;26.00;36.70;;;;;;4855512;29;20425;-60
2022/06/03 04:48:14;;;;;;;0.22;0.00;;;26.00;36.80;;;;;;4855105;29;20145;-57
2022/06/03 04:51:14;;;;;;;0.10;0.00;;;25.90;36.70;;;;;;4852308;29;20053;-57
2022/06/03 04:54:14;;;;;;;0.10;0.00;;;26.00;36.80;;;;;;4851427;29;20076;-59
2022/06/03 04:57:14;;;;;;;0.50;0.00;;;26.00;36.80;;;;;;4800284;29;20138;-58
2022/06/03 05:00:22;;;;;;;0.32;0.20;;;26.00;36.80;;;;;;4803095;29;20104;-58
2022/06/03 05:03:34;;;;;;;0.10;0.10;;;26.00;36.70;;;;;;4853990;29;20054;-57
2022/06/03 05:06:34;;;;;;;0.63;0.13;;;26.00;36.70;;;;;;4869031;29;20168;-57
2022/06/03 05:09:47;;;;;;;0.30;0.10;;;26.00;36.80;;;;;;4909702;29;20072;-52
2022/06/03 05:12:46;;;;;;;0.10;0.10;;;26.00;36.70;;;;;;4907773;29;20108;-56
2022/06/03 05:16:09;;;;;;;0.63;0.10;;;26.00;36.80;;;;;;4910068;29;20075;-56
2022/06/03 05:19:40;;;;;;;0.22;0.00;;;26.00;36.80;;;;;;4905931;29;20406;-56
2022/06/03 05:22:32;;;;;;;0.10;0.00;;;26.00;36.80;;;;;;4893320;29;20730;-56
2022/06/03 05:25:46;;;;;;;1.00;0.10;;;26.00;36.90;;;;;;4904560;29;20048;-56
2022/06/03 05:28:35;;;;;;;0.43;0.00;;;26.00;36.80;;;;;;4860631;29;20558;-56
2022/06/03 05:31:40;;;;;;;1.52;0.10;;;26.00;36.90;;;;;;4851943;29;20137;-57
2022/06/03 05:34:34;;;;;;;2.72;0.75;;;26.00;36.80;;;;;;4893362;29;20066;-57
2022/06/03 05:37:32;;;;;;;0.47;0.00;;;26.00;36.80;;;;;;4940605;29;20122;-55
2022/06/03 05:40:39;;;;;;;0.10;0.00;;;26.10;36.90;;;;;;4925897;29;20225;-57
2022/06/03 05:43:34;;;;;;;0.30;0.08;;;26.10;36.80;;;;;;4843891;29;20057;-58
2022/06/03 05:46:13;;;;;;;0.17;0.10;;;26.10;36.80;;;;;;4842152;29;20142;-58
2022/06/03 05:48:51;;;;;;;0.15;0.15;;;26.10;36.80;;;;;;4848107;29;20061;-55
2022/06/03 05:51:44;;;;;;;0.00;0.00;;;26.10;36.80;;;;;;4852878;29;20799;-57
2022/06/03 05:54:21;;;;;;;0.10;0.10;;;26.20;36.70;;;;;;4823643;29;20530;-56
2022/06/03 05:56:57;;;;;;;1.95;0.10;;;26.20;36.70;;;;;;4823753;29;20486;-57
2022/06/03 05:59:38;;;;;;;;;;;26.10;36.60;;;;;;4855308;29;20066;-57
2022/06/03 06:02:14;;;;;;;0.10;0.10;;;26.10;36.60;;;;;;4843873;29;19925;-57
2022/06/03 06:04:58;;;;;;;4.15;0.10;;;26.10;36.60;;;;;;4896775;29;20079;-56
2022/06/03 06:07:32;;;;;;;0.00;0.00;;;26.10;36.60;;;;;;4908787;29;20048;-54
2022/06/03 06:10:06;;;;;;;1.30;0.10;;;26.20;36.60;;;;;;4907845;29;20131;-56
2022/06/03 06:12:47;;;;;;;1.30;0.10;;;26.20;36.50;;;;;;4895424;29;20164;-54
2022/06/03 06:15:57;;;;;;;0.30;0.00;;;26.20;36.50;;;;;;4906766;29;20048;-57
2022/06/03 06:18:34;;;;;;;0.38;0.10;;;26.30;36.70;;;;;;4988306;28;20502;-54
2022/06/03 06:21:13;;;;;;;1.38;0.38;;;26.20;36.70;;;;;;4988271;28;20137;-54
2022/06/03 06:23:46;;;;;;;0.10;0.10;;;26.20;36.90;;;;;;4989659;28;20054;-58
2022/06/03 06:26:43;;;;;;;0.05;0.05;;;26.30;37.00;;;;;;4988637;28;20074;-56
2022/06/03 06:29:25;;;;;;;;;;;26.30;36.80;;;;;;4939384;29;20054;-59
2022/06/03 06:32:31;;;;;;;9.23;0.43;;;26.20;36.80;;;;;;4916172;29;19927;-58
2022/06/03 06:35:31;;;;;;;4.88;0.85;;;26.20;36.90;;;;;;4922612;29;20091;-57
2022/06/03 06:38:09;;;;;;;7.15;0.20;;;26.30;35.80;;;;;;4879689;29;20104;-55
2022/06/03 06:40:47;;;;;;;1.73;0.85;;;26.20;34.90;;;;;;4878552;29;20135;-56
2022/06/03 06:43:37;;;;;;;3.38;0.35;;;26.20;34.50;;;;;;4870940;29;20537;-50
2022/06/03 06:46:12;;;;;;;5.30;0.22;;;26.10;34.70;;;;;;4868433;29;20180;-51
2022/06/03 06:48:49;;;;;;;2.55;0.55;;;26.00;34.70;;;;;;4877952;29;20068;-51
2022/06/03 06:51:35;;;;;;;6.30;0.85;;;26.00;34.70;;;;;;4875155;29;20128;-55
2022/06/03 06:54:10;;;;;;;15.95;1.17;;;25.90;34.60;;;;;;4880797;29;20057;-54
2022/06/03 06:56:46;;;;;;;8.63;0.67;;;25.80;34.60;;;;;;4871498;29;20155;-51
2022/06/03 06:59:16;;;;;;;;;;;25.80;34.60;;;;;;4867839;29;20067;-50
2022/06/03 07:01:48;;;;;;;30.35;1.42;;;25.70;34.60;;;;;;4869336;29;19990;-53
2022/06/03 07:04:22;;;;;;;28.38;1.77;;;25.70;34.60;;;;;;4876500;29;20044;-49
2022/06/03 07:06:55;;;;;;;10.95;0.52;;;25.70;34.60;;;;;;4913942;29;20143;-51
2022/06/03 07:09:41;;;;;;;24.58;0.75;;;25.60;34.60;;;;;;4925340;29;20517;-50
2022/06/03 07:12:13;;;;;;;9.67;0.93;;;25.70;34.90;;;;;;4926386;29;20067;-54
2022/06/03 07:14:54;;;;;;;10.05;0.22;;;25.60;34.90;;;;;;4946151;28;20054;-53
2022/06/03 07:20:21;;;;;;;4.63;1.02;;;25.50;35.00;;;;;;4987806;28;20049;-48
2022/06/03 07:22:55;;;;;;;2.13;0.38;;;25.50;35.00;;;;;;4986013;28;20471;-51
2022/06/03 07:25:27;;;;;;;2.67;0.30;;;25.50;35.10;;;;;;4986103;28;20073;-51
2022/06/03 07:28:02;;;;;;;0.43;0.28;;;25.50;35.10;;;;;;4986711;28;20137;-50
2022/06/03 07:30:37;;;;;;;18.55;0.60;;;25.50;35.10;;;;;;4982615;28;20109;-48
2022/06/03 07:33:14;;;;;;;8.98;0.77;;;25.50;35.20;;;;;;4985788;28;20499;-49
2022/06/03 07:35:49;;;;;;;7.18;0.80;;;25.50;35.20;;;;;;4986889;28;20050;-46
2022/06/03 07:38:23;;;;;;;5.35;0.82;;;25.50;35.30;;;;;;4987294;28;20226;-47
2022/06/03 07:40:54;;;;;;;2.78;0.43;;;25.50;35.40;;;;;;4979935;28;20137;-48
2022/06/03 07:43:33;;;;;;;12.73;0.52;;;25.50;35.40;;;;;;4983107;28;20145;-51
2022/06/03 07:46:05;;;;;;;1.35;0.30;;;25.60;35.50;;;;;;4980977;28;20042;-56
2022/06/03 07:48:36;;;;;;;1.75;0.43;;;25.50;35.50;;;;;;4983076;28;20074;-56
2022/06/03 07:51:09;;;;;;;1.73;0.75;;;25.60;35.90;;;;;;4985900;28;20550;-57
2022/06/03 07:53:44;;;;;;;8.50;0.47;;;25.70;35.90;;;;;;4988363;28;20051;-60
2022/06/03 07:56:12;;;;;;;4.55;0.60;;;25.80;36.00;;;;;;4990193;28;20049;-59
2022/06/03 07:58:41;;;;;;;3.90;0.70;;;25.90;35.80;;;;;;4984776;28;20589;-57
2022/06/03 08:01:22;;;;;;;2.75;0.90;;;26.10;35.70;;;;;;4986729;28;20050;-54
2022/06/03 08:03:49;;;;;;;6.97;0.70;;;26.30;35.60;;;;;;4967525;28;20038;-57
2022/06/03 08:06:16;;;;;;;2.53;0.52;;;26.40;35.50;;;;;;4986342;28;20403;-57
2022/06/03 08:11:33;;;;;;;0.52;0.43;;;26.70;35.20;;;;;;4992492;28;20050;-58
2022/06/03 08:14:03;;;;;;;4.70;0.73;;;26.80;35.20;;;;;;4993923;28;20043;-58
2022/06/03 08:16:35;;;;;;;2.83;0.65;;;26.90;35.00;;;;;;4994729;28;20047;-59
2022/06/03 08:19:09;;;;;;;12.68;0.20;;;27.10;34.80;;;;;;4993597;28;20078;-61
2022/06/03 08:21:41;;;;;;;10.05;0.70;;;27.10;34.60;;;;;;4996632;28;20046;-62
2022/06/03 08:24:11;;;;;;;5.45;1.75;;;27.20;34.60;;;;;;4998182;28;20043;-60
2022/06/03 08:26:42;;;;;;;6.10;0.40;;;27.10;34.60;;;;;;4980992;28;20046;-63
2022/06/03 08:29:21;;;;;;;3.17;0.65;;;27.00;34.60;;;;;;4996621;28;20043;-62
2022/06/03 08:31:49;;;;;;;9.18;1.25;;;27.00;34.70;;;;;;4998561;28;20121;-59
2022/06/03 08:34:23;;;;;;;3.70;0.63;;;27.00;34.80;;;;;;4997820;28;20043;-60
2022/06/03 08:36:52;;;;;;;12.25;0.85;;;26.90;34.90;;;;;;4991148;28;20042;-61
2022/06/03 08:39:23;;;;;;;11.70;2.55;;;26.90;34.90;;;;;;4997939;28;20044;-60
2022/06/03 08:41:59;;;;;;;9.38;0.70;;;26.90;35.10;;;;;;4993710;28;20077;-62
2022/06/03 08:44:37;;;;;;;19.20;3.50;;;26.90;35.30;;;;;;4989786;28;20128;-61
2022/06/03 08:47:12;;;;;;;3.70;0.82;;;26.80;35.50;;;;;;4989622;28;20042;-61
2022/06/03 08:49:55;;;;;;;5.32;0.85;;;26.80;35.50;;;;;;4989330;28;20507;-61
2022/06/03 08:52:27;;;;;;;4.65;0.68;;;26.90;35.60;;;;;;4983531;28;20081;-62
2022/06/03 08:54:58;;;;;;;5.00;0.75;;;26.80;35.60;;;;;;4983806;28;20149;-62
2022/06/03 08:57:36;;;;;;;8.15;1.13;;;26.80;35.70;;;;;;4989442;28;20043;-61
2022/06/03 09:00:10;;;;;;;11.13;0.75;;;26.80;35.70;;;;;;4989451;28;20150;-63
2022/06/03 09:02:45;;;;;;;6.40;1.33;;;26.80;35.80;;;;;;4989134;28;20046;-60
2022/06/03 09:05:20;;;;;;;3.38;1.13;;;26.80;35.80;;;;;;4986274;28;20046;-61
2022/06/03 09:07:54;;;;;;;14.23;0.85;;;26.80;35.90;;;;;;4987139;28;20101;-62
2022/06/03 09:10:27;;;;;;;6.72;0.38;;;26.80;35.90;;;;;;4989377;28;20073;-62
2022/06/03 09:13:01;;;;;;;16.42;1.60;;;26.80;35.90;;;;;;4989008;28;20047;-62
2022/06/03 09:15:36;;;;;;;9.43;0.90;;;26.80;35.90;;;;;;4989803;28;20046;-62
2022/06/03 09:18:07;;;;;;;6.88;0.82;;;26.80;36.00;;;;;;4988163;28;20065;-61
2022/06/03 09:20:40;;;;;;;9.07;1.30;;;26.80;36.00;;;;;;5000711;28;20038;-60
2022/06/03 09:23:11;;;;;;;10.93;0.88;;;26.80;36.10;;;;;;4988583;28;20113;-61
2022/06/03 09:25:44;;;;;;;9.45;0.82;;;26.80;36.20;;;;;;4989898;28;20060;-61
2022/06/03 09:28:23;;;;;;;5.70;0.50;;;26.80;36.30;;;;;;4989037;28;20097;-61
2022/06/03 09:30:53;;;;;;;8.00;0.82;;;26.80;36.40;;;;;;4989014;28;20043;-61
2022/06/03 09:33:22;;;;;;;5.95;0.82;;;26.90;36.60;;;;;;4988941;28;20408;-60
2022/06/03 09:35:52;;;;;;;5.63;0.68;;;26.90;36.70;;;;;;4989363;28;20051;-61
2022/06/03 09:38:23;;;;;;;10.38;1.13;;;26.90;37.30;;;;;;4989788;28;20073;-61
2022/06/03 09:40:53;;;;;;;19.70;1.15;;;26.90;36.80;;;;;;4989212;28;20046;-61
2022/06/03 09:43:23;;;;;;;14.32;0.95;;;26.90;36.90;;;;;;4988414;28;20058;-61
2022/06/03 09:45:54;;;;;;;2.75;0.30;;;26.90;37.00;;;;;;4988871;28;20074;-62
2022/06/03 09:48:26;;;;;;;18.27;1.48;;;26.90;37.10;;;;;;4982706;28;20066;-61
2022/06/03 09:50:55;;;;;;;7.55;0.50;;;27.00;37.30;;;;;;4989209;28;20093;-61
2022/06/03 09:53:29;;;;;;;2.70;0.40;;;27.00;37.30;;;;;;4990030;28;20038;-60
2022/06/03 09:56:01;;;;;;;4.22;0.85;;;27.00;37.30;;;;;;4988614;28;20050;-60
2022/06/03 09:58:32;;;;;;;5.35;0.73;;;27.00;37.30;;;;;;4988788;28;20128;-62
2022/06/03 10:01:03;;;;;;;7.82;0.52;;;27.00;37.60;;;;;;4988846;28;20081;-61
2022/06/03 10:03:30;;;;;;;4.47;0.40;;;27.00;38.00;;;;;;4988439;28;20042;-61
2022/06/03 10:06:00;;;;;;;7.88;0.63;;;27.00;38.20;;;;;;4988974;28;20046;-61
2022/06/03 10:12:48;;;;;;;4.00;0.55;;;27.00;38.40;;;;;;4988591;28;20113;-62
2022/06/03 10:14:11;;;;;;;5.18;1.08;;;27.00;38.50;;;;;;4967456;28;20055;-62
2022/06/03 10:16:39;;;;;;;1.35;0.40;;;27.10;38.70;;;;;;4966247;28;20102;-62
2022/06/03 10:19:06;;;;;;;0.77;0.63;;;27.10;38.80;;;;;;4965485;28;20051;-62
2022/06/03 10:21:34;;;;;;;2.88;0.77;;;27.10;38.90;;;;;;4965980;28;20145;-62
2022/06/03 10:24:04;;;;;;;5.15;0.50;;;27.10;39.70;;;;;;4965579;28;20059;-62
2022/06/03 10:26:37;;;;;;;2.75;0.40;;;27.10;39.20;;;;;;4967413;28;20624;-63
2022/06/03 10:29:09;;;;;;;2.92;0.65;;;27.20;39.70;;;;;;4965555;28;20049;-63
2022/06/03 10:31:37;;;;;;;3.78;0.65;;;27.10;39.50;;;;;;4965386;28;20058;-62
2022/06/03 10:34:12;;;;;;;1.15;0.45;;;27.10;39.70;;;;;;4964401;28;20522;-62
2022/06/03 10:36:40;;;;;;;1.20;0.30;;;27.20;40.00;;;;;;4965991;28;20078;-64
2022/06/03 10:39:10;;;;;;;1.88;0.20;;;27.20;40.10;;;;;;4965523;28;20046;-62
2022/06/03 10:41:41;;;;;;;2.92;0.55;;;27.20;40.90;;;;;;4967104;28;20051;-62
2022/06/03 10:44:16;;;;;;;0.68;0.22;;;27.30;40.40;;;;;;4966399;28;20074;-62
2022/06/03 10:46:58;;;;;;;8.73;0.85;;;27.30;40.40;;;;;;4965596;28;20051;-63
2022/06/03 10:49:28;;;;;;;4.47;0.73;;;27.30;40.40;;;;;;4971163;28;20054;-62
2022/06/03 11:03:07;;;;;;;2.58;0.30;;;27.40;41.00;;;;;;4987924;28;20046;-61
2022/06/03 11:05:38;;;;;;;1.70;0.50;;;27.40;41.10;;;;;;4989110;28;20146;-62
2022/06/03 11:08:08;;;;;;;6.70;0.60;;;27.50;41.30;;;;;;4987150;28;20426;-63
2022/06/03 11:10:40;;;;;;;5.78;1.23;;;27.50;41.30;;;;;;4987224;28;20139;-61
2022/06/03 11:13:09;;;;;;;6.63;0.80;;;27.50;41.50;;;;;;4987596;28;20435;-62
2022/06/03 11:15:38;;;;;;;5.47;0.73;;;27.50;41.60;;;;;;4970052;28;20053;-61
2022/06/03 11:18:16;;;;;;;2.92;0.95;;;27.50;41.80;;;;;;4987297;28;20122;-62
2022/06/03 11:20:47;;;;;;;3.42;1.42;;;27.50;41.90;;;;;;4986876;28;20566;-61
2022/06/03 11:23:15;;;;;;;0.30;0.30;;;27.50;42.00;;;;;;4987654;28;20046;-61
2022/06/03 11:25:46;;;;;;;5.22;0.80;;;27.50;42.20;;;;;;4987031;28;20046;-61
2022/06/03 11:28:17;;;;;;;3.20;0.40;;;27.40;42.80;;;;;;4987161;28;20038;-61
2022/06/03 11:30:49;;;;;;;2.38;0.25;;;27.40;42.40;;;;;;4987391;28;20788;-61
2022/06/03 11:33:24;;;;;;;1.05;0.30;;;27.40;42.60;;;;;;4983823;28;20050;-61
2022/06/03 11:35:56;;;;;;;1.48;0.50;;;27.40;42.80;;;;;;4987529;28;20073;-63
2022/06/03 11:38:30;;;;;;;0.88;0.32;;;27.30;42.80;;;;;;4988117;28;20045;-62
2022/06/03 11:41:02;;;;;;;3.50;0.20;;;27.30;43.00;;;;;;4987342;28;20069;-63
2022/06/03 11:43:36;;;;;;;1.33;0.20;;;27.30;43.20;;;;;;4987144;28;20054;-61
2022/06/03 11:46:06;;;;;;;0.88;0.25;;;27.20;43.30;;;;;;4986374;28;20132;-62
2022/06/03 11:48:37;;;;;;;3.40;0.52;;;27.20;43.50;;;;;;4984639;28;20054;-61
2022/06/03 11:51:06;;;;;;;0.60;0.50;;;27.10;43.60;;;;;;4986618;28;20109;-62
2022/06/03 11:53:39;;;;;;;0.93;0.52;;;27.10;43.70;;;;;;4985687;28;20043;-62
2022/06/03 11:56:09;;;;;;;2.30;0.30;;;27.10;43.90;;;;;;4986364;28;20070;-62
2022/06/03 11:58:55;;;;;;;3.40;0.20;;;27.00;43.90;;;;;;4986386;28;20527;-59
2022/06/03 12:01:35;;;;;;;3.70;0.30;;;27.00;44.00;;;;;;4986850;28;20141;-58
2022/06/03 12:04:11;;;;;;;1.92;0.40;;;27.00;44.30;;;;;;4986308;28;20070;-59
2022/06/03 12:06:43;;;;;;;3.40;0.30;;;26.90;44.70;;;;;;4986369;28;20039;-58
2022/06/03 12:09:23;;;;;;;4.38;0.25;;;26.90;44.90;;;;;;4986856;28;20042;-59
2022/06/03 12:14:45;;;;;;;3.45;0.32;;;27.00;45.10;;;;;;4985279;28;20042;-59
2022/06/03 12:17:36;;;;;;;2.17;0.22;;;27.00;45.30;;;;;;4987547;28;20100;-59
2022/06/03 12:20:35;;;;;;;1.15;0.20;;;27.00;45.40;;;;;;4971376;28;20404;-60
2022/06/03 12:23:49;;;;;;;5.72;0.20;;;27.00;45.70;;;;;;4985200;28;20133;-59
2022/06/03 12:26:23;;;;;;;6.03;0.20;;;27.00;45.60;;;;;;4987019;28;20097;-59
2022/06/03 12:28:52;;;;;;;3.38;0.50;;;27.00;46.00;;;;;;4986481;28;20092;-59
2022/06/03 12:31:35;;;;;;;2.28;0.20;;;27.00;46.10;;;;;;4986677;28;20125;-59
2022/06/03 12:34:11;;;;;;;1.30;0.40;;;27.00;46.20;;;;;;4980754;28;20042;-58
2022/06/03 12:36:39;;;;;;;;;;;27.00;46.30;;;;;;4986503;28;20137;-58
2022/06/03 12:39:32;;;;;;;0.68;0.38;;;27.00;45.90;;;;;;4986736;28;19930;-58
2022/06/03 12:42:08;;;;;;;1.30;0.65;;;27.00;46.20;;;;;;4968386;28;20120;-58
2022/06/03 12:44:50;;;;;;;4.65;0.30;;;27.00;46.40;;;;;;4988162;28;20140;-59
2022/06/03 12:47:30;;;;;;;2.25;0.20;;;27.00;46.50;;;;;;4986912;28;20084;-58
2022/06/03 12:50:18;;;;;;;1.15;0.47;;;27.00;46.50;;;;;;4985891;28;20078;-58
2022/06/03 12:52:46;;;;;;;2.00;0.20;;;26.90;46.50;;;;;;4985842;28;20130;-58
2022/06/03 12:55:26;;;;;;;3.60;0.63;;;27.00;46.60;;;;;;4985899;28;20053;-57
2022/06/03 12:57:57;;;;;;;1.23;0.20;;;27.00;46.70;;;;;;4983703;28;20050;-57
2022/06/03 13:00:29;;;;;;;3.60;0.20;;;27.00;46.70;;;;;;4989967;28;20062;-58
2022/06/03 13:02:59;;;;;;;1.38;0.40;;;27.00;46.80;;;;;;4989959;28;20058;-60
2022/06/03 13:05:37;;;;;;;2.60;0.20;;;27.00;46.80;;;;;;4989321;28;20141;-60
2022/06/03 13:08:08;;;;;;;0.77;0.45;;;27.00;46.90;;;;;;4989574;28;20502;-59
2022/06/03 13:11:01;;;;;;;0.82;0.20;;;27.00;46.90;;;;;;4989195;28;20056;-59
2022/06/03 13:13:40;;;;;;;0.20;0.10;;;27.00;46.90;;;;;;4989492;28;20050;-59
2022/06/03 13:16:41;;;;;;;0.10;0.10;;;26.90;46.90;;;;;;4989421;28;20143;-59
2022/06/03 13:19:42;;;;;;;0.30;0.20;;;27.00;46.90;;;;;;4983667;28;20038;-60
2022/06/03 13:22:09;;;;;;;3.40;0.88;;;26.90;46.90;;;;;;4989238;28;20049;-60
2022/06/03 13:24:38;;;;;;;0.60;0.10;;;26.90;46.90;;;;;;4989777;28;20070;-59
2022/06/03 13:27:11;;;;;;;1.95;0.63;;;26.90;47.00;;;;;;4989560;28;20684;-60
2022/06/03 13:30:13;;;;;;;0.75;0.22;;;26.90;47.10;;;;;;4991117;28;20054;-60
2022/06/03 13:32:59;;;;;;;2.53;0.20;;;26.90;47.00;;;;;;4991043;28;20046;-59
2022/06/03 13:35:28;;;;;;;0.50;0.20;;;26.90;47.10;;;;;;4987765;28;20046;-60
2022/06/03 13:38:16;;;;;;;0.35;0.20;;;26.80;47.00;;;;;;4989296;28;20077;-59
2022/06/03 13:42:57;;;;;;;3.40;0.20;;;26.90;47.10;;;;;;4988968;28;20145;-59
2022/06/03 13:43:32;;;;;;;3.33;0.38;;;26.80;47.10;;;;;;4988885;28;20045;-61
2022/06/03 13:46:03;;;;;;;3.00;0.30;;;26.80;47.20;;;;;;4988965;28;20042;-61
2022/06/03 13:48:38;;;;;;;0.30;0.10;;;26.80;47.20;;;;;;4982506;28;20128;-60
2022/06/03 13:51:26;;;;;;;0.30;0.10;;;26.80;47.20;;;;;;4987938;28;20165;-60
2022/06/03 13:53:56;;;;;;;1.33;0.20;;;26.90;47.30;;;;;;4988987;28;20049;-59
2022/06/03 13:56:26;;;;;;;1.70;0.50;;;26.80;47.30;;;;;;4990166;28;20042;-60
2022/06/03 13:58:56;;;;;;;2.80;0.10;;;26.80;47.30;;;;;;4988583;28;20089;-60
2022/06/03 14:01:28;;;;;;;0.10;0.10;;;26.80;47.40;;;;;;4988672;28;20098;-61
2022/06/03 14:04:00;;;;;;;2.90;0.20;;;26.80;47.30;;;;;;4988501;28;20468;-59
2022/06/03 14:06:36;;;;;;;0.85;0.20;;;26.80;47.30;;;;;;4988808;28;20834;-60
2022/06/03 14:09:08;;;;;;;0.45;0.10;;;26.90;47.50;;;;;;4987343;28;20133;-60
2022/06/03 14:11:40;;;;;;;0.38;0.10;;;26.80;47.30;;;;;;4990094;28;20042;-59
2022/06/03 14:14:14;;;;;;;1.27;0.10;;;26.90;47.30;;;;;;4988394;28;20046;-60
2022/06/03 14:16:46;;;;;;;0.30;0.17;;;26.90;47.40;;;;;;4987173;28;20046;-58
2022/06/03 14:19:40;;;;;;;0.10;0.10;;;26.90;47.30;;;;;;4987854;28;20062;-55
2022/06/03 14:22:20;;;;;;;0.57;0.10;;;26.90;47.20;;;;;;4982184;28;24067;-60
2022/06/03 14:24:55;;;;;;;0.35;0.25;;;27.00;47.30;;;;;;4988266;28;20035;-60
2022/06/03 14:27:30;;;;;;;0.95;0.30;;;27.00;47.20;;;;;;4984863;28;20078;-60
2022/06/03 14:30:06;;;;;;;2.30;0.20;;;27.00;47.20;;;;;;4971155;28;20129;-61
2022/06/03 14:32:37;;;;;;;0.90;0.20;;;27.00;47.20;;;;;;4988963;28;20657;-60